Browning, MT (59417)

7:41 AM MST on January 31, 2015 (GMT -0700)
De La Salle Blackfeet School | Change Station
CLOSE
Current Station
Personal Weather Station
Location: Browning, MT
Elevation: 4367 ft
Nearby Weather Stations

Elev 4367 ft 48.56 °N, 113.02 °W | Updated 11 seconds ago

Overcast
Overcast
16.0 °F
Feels Like 3 °F
N
11.0
Wind Variable Wind from NW
Gusts 25.0 mph

Today
High -- | Low -- °F
--% Chance of Precip.
Yesterday
High -- | Low -- °F
Precip. -- in
8:02 AM 5:28 PM
Waxing Gibbous, 90% visible
Pressure 30.15 in
Visibility 3.0 miles
Clouds Scattered Clouds 1400 ft
Mostly Cloudy 2600 ft
Overcast 6000 ft
Windchill 3 °F
Dew Point 13 °F
Humidity 86%
Rainfall 0.00 in
Snow Depth Not available.
UV 0 out of 12
Pollen .30 out of 12
Air Quality Not available.
Flu Activity Not available.
SPECI KCTB 311437Z AUTO 35018G25KT 3SM -SN BR SCT014 BKN026 OVC060 M08/M10 A3015 RMK AO2 PK WND 35028/1402 P0000 T10831100

More Conditions Fewer Conditions

Pressure 30.15 in
Visibility 3.0 miles
Clouds Scattered Clouds 1400 ft
Mostly Cloudy 2600 ft
Overcast 6000 ft
Windchill 3 °F
Dew Point 13 °F
Humidity 86%
Rainfall 0.00 in
Snow Depth Not available.
UV 0 out of 12
Pollen .30 out of 12
Air Quality Not available.
Flu Activity Not available.
SPECI KCTB 311437Z AUTO 35018G25KT 3SM -SN BR SCT014 BKN026 OVC060 M08/M10 A3015 RMK AO2 PK WND 35028/1402 P0000 T10831100

More Conditions Fewer Conditions

10-Day Weather Forecast

Almanac

Astronomy

Jan. 31, 2015 Rise Set
Actual Time
Civil Twilight
Nautical Twilight
Astronomical Twilight
Moon
Length of Visible Light
Length of Day
Tomorrow will be .
, % of the Moon is Illuminated

Today's Extremes

State Highs State Lows

Community

WunderPhotos

Upload Photos

1,792,064 photos uploaded!

WunderBlogs® & News

Nearby

Air Quality

  Air Quality AQ Index Pollutant
Not available.

Snow Depth

Station Depth Elevation

Earthquake Activity

City Distance Mag. Time & Date
Minimum magnitude displayed is 2.5.

Coastal Water Temperatures

Place Temperature

Nearby Weather Stations